Time;durP1;ratioP1;P1;durP2;ratioP2;P2;SDS_P1;SDS_P2;PMS_P1;PMS_P2;Temp;Humidity;BMP_temperature;BMP_pressure;BME280_temperature;BME280_humidity;BME280_pressure;Samples;Min_cycle;Max_cycle;Signal;HPM_P1;HPM_P2
2023/01/03 00:00:35;;;;;;;18.30;4.32;;;;;;;;;;5051803;28;20060;-78
2023/01/03 00:03:01;;;;;;;10.10;3.30;;;;;;;;;;5034993;28;20113;-78
2023/01/03 00:05:27;;;;;;;8.57;3.58;;;;;;;;;;5035510;28;20506;-78
2023/01/03 00:07:53;;;;;;;12.15;4.00;;;;;;;;;;5051730;28;20068;-78
2023/01/03 00:10:19;;;;;;;10.38;3.40;;;;;;;;;;5051612;28;20439;-78
2023/01/03 00:12:45;;;;;;;11.88;3.65;;;;;;;;;;5052805;28;20079;-78
2023/01/03 00:15:14;;;;;;;12.25;3.80;;;;;;;;;;5051273;28;20040;-77
2023/01/03 00:17:41;;;;;;;11.05;3.53;;;;;;;;;;5051403;28;20044;-78
2023/01/03 00:20:08;;;;;;;10.30;3.58;;;;;;;;;;5051150;28;20037;-78
2023/01/03 00:22:35;;;;;;;9.38;3.33;;;;;;;;;;5051548;28;20040;-77
2023/01/03 00:25:01;;;;;;;7.90;3.50;;;;;;;;;;5050969;28;20051;-77
2023/01/03 00:27:27;;;;;;;13.40;4.70;;;;;;;;;;5051460;28;20048;-77
2023/01/03 00:29:53;;;;;;;8.70;3.60;;;;;;;;;;5051305;28;20098;-77
2023/01/03 00:32:19;;;;;;;11.20;3.35;;;;;;;;;;5050931;28;20041;-78
2023/01/03 00:34:46;;;;;;;11.77;3.60;;;;;;;;;;5051637;28;20482;-77
2023/01/03 00:37:13;;;;;;;14.10;3.53;;;;;;;;;;5051122;28;20039;-77
2023/01/03 00:39:39;;;;;;;9.10;3.80;;;;;;;;;;5051391;28;20039;-79
2023/01/03 00:42:05;;;;;;;12.45;3.67;;;;;;;;;;5018266;28;20128;-77
2023/01/03 00:44:31;;;;;;;13.48;3.92;;;;;;;;;;5051338;28;20041;-77
2023/01/03 00:46:58;;;;;;;11.75;3.63;;;;;;;;;;5051496;28;20045;-77
2023/01/03 00:49:24;;;;;;;13.57;3.70;;;;;;;;;;5055941;28;20045;-78
2023/01/03 00:51:52;;;;;;;11.95;4.00;;;;;;;;;;5055572;28;20482;-77
2023/01/03 00:54:19;;;;;;;17.88;5.40;;;;;;;;;;5056086;28;20059;-78
2023/01/03 00:56:45;;;;;;;11.00;3.65;;;;;;;;;;5051175;28;20041;-77
2023/01/03 00:59:12;;;;;;;11.13;4.20;;;;;;;;;;5055297;28;20389;-77
2023/01/03 01:01:40;;;;;;;11.95;3.50;;;;;;;;;;5055160;28;20099;-78
2023/01/03 01:04:10;;;;;;;11.05;3.50;;;;;;;;;;5055255;28;20417;-78
2023/01/03 01:06:44;;;;;;;13.15;3.97;;;;;;;;;;5055412;28;20488;-78
2023/01/03 01:09:12;;;;;;;10.82;3.90;;;;;;;;;;5055243;28;20044;-78
2023/01/03 01:11:38;;;;;;;8.57;3.38;;;;;;;;;;5055391;28;20037;-78
2023/01/03 01:14:18;;;;;;;9.80;3.80;;;;;;;;;;5056295;28;20049;-78
2023/01/03 01:16:44;;;;;;;10.25;4.25;;;;;;;;;;5040151;28;20040;-78
2023/01/03 01:19:10;;;;;;;12.32;3.70;;;;;;;;;;5054431;28;20106;-77
2023/01/03 01:21:36;;;;;;;11.68;3.72;;;;;;;;;;5054661;28;20041;-77
2023/01/03 01:24:03;;;;;;;8.48;4.18;;;;;;;;;;5054860;28;20048;-78
2023/01/03 01:26:29;;;;;;;12.77;4.13;;;;;;;;;;5054363;28;20047;-78
2023/01/03 01:28:55;;;;;;;10.82;4.18;;;;;;;;;;5054749;28;20139;-77
2023/01/03 01:31:23;;;;;;;12.73;4.15;;;;;;;;;;5054377;28;20041;-79
2023/01/03 01:33:49;;;;;;;19.90;4.53;;;;;;;;;;5054207;28;20570;-78
2023/01/03 01:36:17;;;;;;;15.15;4.30;;;;;;;;;;5054404;28;20041;-79
2023/01/03 01:38:44;;;;;;;12.35;4.10;;;;;;;;;;5054598;28;20116;-78
2023/01/03 01:41:14;;;;;;;13.52;4.63;;;;;;;;;;5054330;28;20036;-78
2023/01/03 01:46:41;;;;;;;13.65;5.18;;;;;;;;;;5054623;28;20048;-77
2023/01/03 01:49:11;;;;;;;15.88;5.70;;;;;;;;;;5054519;28;20509;-78
2023/01/03 01:51:37;;;;;;;16.27;6.88;;;;;;;;;;5053548;28;20531;-78
2023/01/03 01:54:04;;;;;;;20.05;6.50;;;;;;;;;;5045140;28;20060;-79
2023/01/03 01:56:33;;;;;;;22.88;7.40;;;;;;;;;;5057000;28;20055;-78
2023/01/03 01:58:59;;;;;;;18.27;6.95;;;;;;;;;;5073963;28;20489;-79
2023/01/03 02:01:25;;;;;;;18.30;6.80;;;;;;;;;;5068661;28;20040;-77
2023/01/03 02:04:11;;;;;;;20.13;7.35;;;;;;;;;;5068187;28;20123;-78
2023/01/03 02:06:37;;;;;;;20.42;7.00;;;;;;;;;;5056352;28;20047;-78
2023/01/03 02:09:04;;;;;;;18.83;7.75;;;;;;;;;;5054053;28;20040;-78
2023/01/03 02:11:48;;;;;;;19.55;8.55;;;;;;;;;;5042820;28;20128;-78
2023/01/03 02:14:14;;;;;;;26.88;8.77;;;;;;;;;;5073427;28;20098;-78
2023/01/03 02:16:59;;;;;;;26.38;8.88;;;;;;;;;;5054082;28;20506;-77
2023/01/03 02:19:45;;;;;;;25.02;9.07;;;;;;;;;;5030842;28;20097;-79
2023/01/03 02:22:30;;;;;;;24.58;9.10;;;;;;;;;;5061029;28;20136;-78
2023/01/03 02:25:15;;;;;;;26.33;10.25;;;;;;;;;;5057284;28;20049;-77
2023/01/03 02:27:47;;;;;;;27.20;10.52;;;;;;;;;;5068286;28;20048;-79
2023/01/03 02:30:13;;;;;;;22.75;9.75;;;;;;;;;;5053812;28;20094;-77
2023/01/03 02:32:45;;;;;;;26.42;10.68;;;;;;;;;;5067543;28;20044;-77
2023/01/03 02:35:34;;;;;;;25.20;10.00;;;;;;;;;;5054668;28;20037;-77
2023/01/03 02:38:04;;;;;;;24.85;10.60;;;;;;;;;;5013965;28;20052;-78
2023/01/03 02:40:33;;;;;;;26.95;10.48;;;;;;;;;;5067109;28;20036;-78
2023/01/03 02:43:08;;;;;;;24.25;10.88;;;;;;;;;;5036541;28;20045;-78
2023/01/03 02:45:52;;;;;;;26.77;11.10;;;;;;;;;;5053228;28;20041;-78
2023/01/03 02:48:37;;;;;;;28.70;10.48;;;;;;;;;;5073625;28;20493;-78
2023/01/03 02:51:08;;;;;;;30.60;10.57;;;;;;;;;;5057230;28;20047;-78
2023/01/03 02:53:38;;;;;;;30.08;10.90;;;;;;;;;;5053149;28;20144;-77
2023/01/03 02:56:09;;;;;;;25.25;10.80;;;;;;;;;;5055615;28;20049;-78
2023/01/03 02:58:36;;;;;;;28.05;10.95;;;;;;;;;;5072718;28;20062;-78
2023/01/03 03:01:03;;;;;;;28.42;10.68;;;;;;;;;;5056677;28;20041;-78
2023/01/03 03:03:32;;;;;;;29.30;11.73;;;;;;;;;;5057416;28;20048;-78
2023/01/03 03:06:04;;;;;;;34.15;12.45;;;;;;;;;;5072207;28;20040;-78
2023/01/03 03:08:30;;;;;;;30.10;12.48;;;;;;;;;;5052627;28;20167;-78
2023/01/03 03:13:54;;;;;;;31.88;12.98;;;;;;;;;;5039324;28;20056;-78
2023/01/03 03:16:46;;;;;;;34.35;12.52;;;;;;;;;;5036158;28;20040;-78
2023/01/03 03:24:48;;;;;;;34.95;14.10;;;;;;;;;;5072617;28;20044;-78
2023/01/03 03:24:48;;;;;;;32.40;13.48;;;;;;;;;;5066252;28;20044;-78
2023/01/03 03:30:01;;;;;;;38.10;13.70;;;;;;;;;;5057300;28;20088;-78
2023/01/03 03:32:28;;;;;;;38.30;14.32;;;;;;;;;;5039955;28;20343;-78
2023/01/03 03:34:55;;;;;;;44.70;14.45;;;;;;;;;;5061150;28;20037;-78
2023/01/03 03:37:24;;;;;;;34.42;13.45;;;;;;;;;;5067624;28;20037;-78
2023/01/03 03:45:28;;;;;;;37.58;14.18;;;;;;;;;;5070968;28;20536;-78
2023/01/03 03:48:05;;;;;;;40.72;14.75;;;;;;;;;;5052086;28;20075;-78
2023/01/03 03:50:37;;;;;;;43.67;15.25;;;;;;;;;;5052142;28;20041;-78
2023/01/03 03:53:06;;;;;;;42.80;15.77;;;;;;;;;;5052203;28;20060;-77
2023/01/03 03:55:44;;;;;;;38.45;15.25;;;;;;;;;;5065906;28;20037;-78
2023/01/03 03:58:15;;;;;;;38.40;15.60;;;;;;;;;;5039610;28;20037;-78
2023/01/03 04:00:42;;;;;;;44.58;15.93;;;;;;;;;;5051927;28;20489;-78
2023/01/03 04:03:08;;;;;;;37.35;15.70;;;;;;;;;;5065659;28;20041;-79
2023/01/03 04:05:37;;;;;;;41.05;15.48;;;;;;;;;;5052890;28;20509;-77
2023/01/03 04:08:03;;;;;;;39.35;15.98;;;;;;;;;;5052553;28;20052;-78
2023/01/03 04:10:29;;;;;;;39.58;16.30;;;;;;;;;;5059944;28;20553;-77
2023/01/03 04:12:55;;;;;;;45.40;16.85;;;;;;;;;;5071500;28;20511;-79
2023/01/03 04:15:21;;;;;;;43.35;16.27;;;;;;;;;;5065217;28;20124;-78
2023/01/03 04:17:47;;;;;;;48.13;17.52;;;;;;;;;;5047315;28;20048;-78
2023/01/03 04:20:14;;;;;;;50.20;17.25;;;;;;;;;;5057297;28;20028;-79
2023/01/03 04:22:40;;;;;;;49.15;17.92;;;;;;;;;;5043461;28;20524;-79
2023/01/03 04:25:06;;;;;;;47.80;17.35;;;;;;;;;;5065537;28;20123;-78
2023/01/03 04:27:33;;;;;;;41.65;17.17;;;;;;;;;;5051135;28;20041;-78
2023/01/03 04:29:59;;;;;;;45.70;17.13;;;;;;;;;;5051406;28;20090;-78
2023/01/03 04:32:25;;;;;;;38.55;16.67;;;;;;;;;;5051223;28;20120;-78
2023/01/03 04:34:51;;;;;;;39.53;16.70;;;;;;;;;;5065492;28;20113;-79
2023/01/03 04:37:17;;;;;;;41.30;16.58;;;;;;;;;;5052230;28;20033;-79
2023/01/03 04:39:43;;;;;;;46.85;17.38;;;;;;;;;;5051725;28;20041;-78
2023/01/03 04:44:54;;;;;;;46.47;18.90;;;;;;;;;;5059510;28;20084;-78
2023/01/03 04:47:20;;;;;;;40.92;17.48;;;;;;;;;;5065472;28;20041;-78
2023/01/03 04:49:47;;;;;;;41.60;17.92;;;;;;;;;;5044433;28;20089;-77
2023/01/03 04:52:16;;;;;;;43.53;17.80;;;;;;;;;;5071472;28;20048;-78
2023/01/03 04:54:42;;;;;;;51.03;19.98;;;;;;;;;;5062689;28;20056;-78
2023/01/03 04:57:09;;;;;;;57.42;20.42;;;;;;;;;;5065877;28;20048;-79
2023/01/03 04:59:35;;;;;;;54.35;20.95;;;;;;;;;;5067286;28;20029;-78
2023/01/03 05:02:02;;;;;;;50.10;19.38;;;;;;;;;;5060183;28;20045;-78
2023/01/03 05:04:28;;;;;;;56.58;20.58;;;;;;;;;;5051695;28;20073;-78
2023/01/03 05:06:55;;;;;;;62.05;22.33;;;;;;;;;;5051071;28;20460;-78
2023/01/03 05:09:21;;;;;;;60.20;22.30;;;;;;;;;;5064220;28;20048;-78
2023/01/03 05:11:47;;;;;;;54.17;22.80;;;;;;;;;;5056692;28;20119;-78
2023/01/03 05:14:14;;;;;;;61.72;23.35;;;;;;;;;;5071234;28;20041;-79
2023/01/03 05:16:40;;;;;;;64.65;24.60;;;;;;;;;;5053815;28;20076;-78
2023/01/03 05:19:06;;;;;;;62.60;23.20;;;;;;;;;;5018178;28;20033;-79
2023/01/03 05:27:02;;;;;;;65.72;25.02;;;;;;;;;;5051042;28;20094;-78
2023/01/03 05:29:29;;;;;;;65.97;25.60;;;;;;;;;;5044821;28;20056;-79
2023/01/03 05:31:55;;;;;;;64.10;25.48;;;;;;;;;;5067935;28;20048;-79
2023/01/03 05:34:21;;;;;;;66.65;26.00;;;;;;;;;;5052943;28;20051;-78
2023/01/03 05:36:47;;;;;;;66.78;25.50;;;;;;;;;;5069428;28;20051;-78
2023/01/03 05:39:13;;;;;;;64.63;26.15;;;;;;;;;;5067953;28;20036;-78
2023/01/03 05:44:24;;;;;;;64.97;25.73;;;;;;;;;;5054960;28;20040;-78
2023/01/03 05:46:50;;;;;;;66.78;25.42;;;;;;;;;;5055838;28;20115;-78
2023/01/03 05:49:16;;;;;;;68.90;25.48;;;;;;;;;;5054046;28;20036;-79
2023/01/03 05:51:42;;;;;;;65.88;25.48;;;;;;;;;;5065910;28;20423;-78
2023/01/03 05:54:09;;;;;;;65.85;25.58;;;;;;;;;;5073772;28;20110;-78
2023/01/03 05:56:35;;;;;;;67.63;25.33;;;;;;;;;;5074595;28;20474;-79
2023/01/03 05:59:01;;;;;;;67.85;25.85;;;;;;;;;;5059699;28;20036;-79
2023/01/03 06:01:27;;;;;;;66.30;24.50;;;;;;;;;;5074042;28;20041;-79
2023/01/03 06:03:54;;;;;;;68.68;25.98;;;;;;;;;;5073765;28;20050;-79
2023/01/03 06:06:20;;;;;;;72.05;25.52;;;;;;;;;;5057760;28;20049;-79
2023/01/03 06:08:46;;;;;;;67.13;25.15;;;;;;;;;;5063311;28;20037;-78
2023/01/03 06:11:13;;;;;;;66.45;25.40;;;;;;;;;;5060049;28;20182;-77
2023/01/03 06:13:40;;;;;;;66.18;23.50;;;;;;;;;;5067463;28;20564;-78
2023/01/03 06:18:57;;;;;;;64.93;25.35;;;;;;;;;;5005635;28;20378;-78
2023/01/03 06:21:23;;;;;;;74.72;26.33;;;;;;;;;;5053709;28;20122;-78
2023/01/03 06:23:49;;;;;;;72.05;25.63;;;;;;;;;;5039988;28;20037;-78
2023/01/03 06:26:20;;;;;;;77.63;26.20;;;;;;;;;;5066001;28;20036;-78
2023/01/03 06:28:46;;;;;;;69.47;25.65;;;;;;;;;;5054493;28;20041;-79
2023/01/03 06:31:12;;;;;;;73.82;26.88;;;;;;;;;;5053350;28;20043;-79
2023/01/03 06:33:38;;;;;;;63.58;25.38;;;;;;;;;;5067031;28;20390;-79
2023/01/03 06:36:06;;;;;;;67.78;26.73;;;;;;;;;;5053309;28;20466;-79
2023/01/03 06:38:32;;;;;;;69.60;24.50;;;;;;;;;;5018137;28;20124;-79
2023/01/03 06:40:58;;;;;;;61.60;24.92;;;;;;;;;;5060429;28;20044;-79
2023/01/03 06:43:24;;;;;;;63.90;25.35;;;;;;;;;;5044057;28;20037;-79
2023/01/03 06:54:30;;;;;;;57.72;22.80;;;;;;;;;;5052838;28;20053;-80
2023/01/03 06:56:57;;;;;;;64.63;23.65;;;;;;;;;;5052965;28;20098;-79
2023/01/03 06:59:23;;;;;;;60.40;23.23;;;;;;;;;;5052843;28;20052;-79
2023/01/03 07:01:50;;;;;;;56.75;23.67;;;;;;;;;;5052804;28;20081;-79
2023/01/03 07:04:16;;;;;;;53.67;21.33;;;;;;;;;;5066409;28;20521;-79
2023/01/03 07:06:43;;;;;;;56.97;23.83;;;;;;;;;;5059045;28;20049;-79
2023/01/03 07:09:09;;;;;;;61.45;24.17;;;;;;;;;;5056257;28;20055;-79
2023/01/03 07:11:36;;;;;;;59.55;22.65;;;;;;;;;;5038454;28;20397;-79
2023/01/03 07:14:02;;;;;;;64.95;23.88;;;;;;;;;;5061994;28;20040;-79
2023/01/03 07:16:28;;;;;;;89.47;28.80;;;;;;;;;;5071261;28;20566;-78
2023/01/03 07:18:55;;;;;;;90.82;28.70;;;;;;;;;;5052522;28;20071;-78
2023/01/03 07:21:22;;;;;;;109.65;28.52;;;;;;;;;;5066505;28;20093;-79
2023/01/03 07:23:48;;;;;;;167.07;29.23;;;;;;;;;;5066837;28;20040;-78
2023/01/03 07:26:14;;;;;;;209.00;26.88;;;;;;;;;;5064520;28;20124;-78
2023/01/03 07:28:40;;;;;;;280.13;27.88;;;;;;;;;;5054373;28;20048;-79
2023/01/03 07:31:06;;;;;;;202.68;25.02;;;;;;;;;;5052423;28;20055;-79
2023/01/03 07:33:33;;;;;;;248.30;27.17;;;;;;;;;;5052219;28;20045;-78
2023/01/03 07:36:00;;;;;;;220.30;25.80;;;;;;;;;;5043831;28;20044;-78
2023/01/03 07:38:26;;;;;;;243.38;26.75;;;;;;;;;;5089219;28;20090;-78
2023/01/03 07:40:52;;;;;;;237.85;26.27;;;;;;;;;;5067104;28;20045;-78
2023/01/03 07:43:36;;;;;;;272.92;28.33;;;;;;;;;;5053528;28;20049;-79
2023/01/03 07:46:05;;;;;;;278.90;29.65;;;;;;;;;;5059081;28;20037;-78
2023/01/03 07:48:31;;;;;;;379.48;31.13;;;;;;;;;;5058957;28;20421;-78
2023/01/03 07:50:58;;;;;;;306.10;29.55;;;;;;;;;;5052306;28;20521;-78
2023/01/03 07:53:24;;;;;;;368.58;30.77;;;;;;;;;;5051843;28;20045;-78
2023/01/03 07:55:50;;;;;;;363.30;29.98;;;;;;;;;;5049644;28;20056;-78
2023/01/03 07:58:16;;;;;;;418.33;33.88;;;;;;;;;;5052063;28;20493;-78
2023/01/03 08:00:42;;;;;;;337.20;30.23;;;;;;;;;;5052229;28;20531;-78
2023/01/03 08:03:09;;;;;;;437.23;34.15;;;;;;;;;;5052027;28;20044;-78
2023/01/03 08:05:35;;;;;;;461.75;35.05;;;;;;;;;;5063343;28;20033;-78
2023/01/03 08:08:02;;;;;;;472.55;35.58;;;;;;;;;;5056835;28;20048;-78
2023/01/03 08:13:17;;;;;;;424.50;34.50;;;;;;;;;;5054711;28;20448;-78
2023/01/03 08:15:44;;;;;;;521.55;37.30;;;;;;;;;;5071742;28;20167;-78
2023/01/03 08:18:10;;;;;;;502.15;37.13;;;;;;;;;;5037239;28;20068;-78
2023/01/03 08:20:37;;;;;;;511.60;39.03;;;;;;;;;;5052364;28;20406;-78
2023/01/03 08:23:03;;;;;;;627.58;44.50;;;;;;;;;;5052259;28;20051;-78
2023/01/03 08:25:29;;;;;;;564.85;41.25;;;;;;;;;;5051897;28;20127;-78
2023/01/03 08:27:58;;;;;;;630.10;43.33;;;;;;;;;;5051626;28;20041;-78
2023/01/03 08:30:25;;;;;;;543.97;41.70;;;;;;;;;;5065682;28;20040;-78
2023/01/03 08:32:52;;;;;;;611.33;45.65;;;;;;;;;;5061919;28;20044;-79
2023/01/03 08:35:18;;;;;;;607.70;44.58;;;;;;;;;;5054725;28;20143;-78
2023/01/03 08:37:45;;;;;;;578.20;46.08;;;;;;;;;;5042824;28;20064;-78
2023/01/03 08:40:12;;;;;;;443.40;42.30;;;;;;;;;;5079557;28;20043;-78
2023/01/03 08:42:38;;;;;;;561.30;47.38;;;;;;;;;;5051453;28;20051;-78
2023/01/03 08:45:06;;;;;;;407.48;42.50;;;;;;;;;;5034865;28;20049;-78
2023/01/03 08:47:33;;;;;;;358.92;40.38;;;;;;;;;;5051416;28;20033;-79
2023/01/03 08:49:59;;;;;;;248.93;34.13;;;;;;;;;;5052741;28;20048;-78
2023/01/03 08:52:25;;;;;;;299.65;41.97;;;;;;;;;;5050967;28;20041;-78
2023/01/03 08:54:51;;;;;;;284.95;41.90;;;;;;;;;;5051555;28;20052;-78
2023/01/03 08:57:17;;;;;;;298.98;44.35;;;;;;;;;;5051895;28;20494;-78
2023/01/03 08:59:43;;;;;;;280.92;41.05;;;;;;;;;;5051710;28;20071;-79
2023/01/03 09:02:09;;;;;;;255.85;40.25;;;;;;;;;;5051564;28;20057;-80
2023/01/03 09:04:36;;;;;;;256.23;42.20;;;;;;;;;;5035292;28;20036;-79
2023/01/03 09:07:02;;;;;;;245.02;39.17;;;;;;;;;;5051541;28;20045;-79
2023/01/03 09:09:28;;;;;;;282.95;44.38;;;;;;;;;;5053674;28;20124;-79
2023/01/03 09:11:54;;;;;;;236.82;42.60;;;;;;;;;;5056648;28;20045;-79
2023/01/03 09:14:20;;;;;;;242.48;44.53;;;;;;;;;;5067167;28;20099;-79
2023/01/03 09:16:46;;;;;;;230.68;43.92;;;;;;;;;;5056760;28;20044;-79
2023/01/03 09:19:12;;;;;;;225.15;44.63;;;;;;;;;;5054798;28;20033;-79
2023/01/03 09:21:38;;;;;;;219.60;45.40;;;;;;;;;;5069241;28;20060;-78
2023/01/03 09:24:05;;;;;;;216.70;46.65;;;;;;;;;;5055366;28;20151;-78
2023/01/03 09:26:31;;;;;;;220.20;45.90;;;;;;;;;;5054716;28;20044;-78
2023/01/03 09:28:57;;;;;;;219.40;45.83;;;;;;;;;;5061059;28;20121;-79
2023/01/03 09:31:23;;;;;;;205.10;45.33;;;;;;;;;;5074837;28;20497;-78
2023/01/03 09:33:49;;;;;;;198.73;45.05;;;;;;;;;;5070062;28;20053;-78
2023/01/03 09:36:15;;;;;;;188.15;42.47;;;;;;;;;;5054512;28;20037;-78
2023/01/03 09:38:41;;;;;;;203.98;44.72;;;;;;;;;;5054865;28;20041;-78
2023/01/03 09:41:11;;;;;;;196.65;46.95;;;;;;;;;;5046478;28;20068;-78
2023/01/03 09:43:39;;;;;;;206.00;46.65;;;;;;;;;;5072990;28;20600;-79
2023/01/03 09:46:06;;;;;;;203.57;45.60;;;;;;;;;;5042057;28;20045;-78
2023/01/03 09:48:33;;;;;;;190.57;46.45;;;;;;;;;;5040585;28;20067;-79
2023/01/03 09:51:00;;;;;;;190.93;45.00;;;;;;;;;;5066957;28;20505;-79
2023/01/03 10:05:05;;;;;;;167.32;44.08;;;;;;;;;;5068468;28;20509;-78
2023/01/03 10:07:46;;;;;;;168.30;45.17;;;;;;;;;;5066131;28;20523;-79
2023/01/03 10:10:17;;;;;;;176.57;46.67;;;;;;;;;;5057411;28;20033;-78
2023/01/03 10:12:55;;;;;;;161.93;44.95;;;;;;;;;;5061288;28;20132;-78
2023/01/03 10:15:24;;;;;;;162.68;45.42;;;;;;;;;;5046927;28;20040;-78
2023/01/03 10:17:59;;;;;;;143.10;42.25;;;;;;;;;;5095018;28;20049;-79
2023/01/03 10:20:29;;;;;;;135.15;42.88;;;;;;;;;;5040367;28;20490;-79
2023/01/03 10:22:56;;;;;;;120.18;38.92;;;;;;;;;;5054115;28;20045;-79
2023/01/03 10:25:23;;;;;;;120.40;34.88;;;;;;;;;;5053591;28;20041;-79
2023/01/03 10:27:59;;;;;;;115.28;37.95;;;;;;;;;;5054893;28;20045;-79
2023/01/03 10:30:26;;;;;;;112.60;37.95;;;;;;;;;;5067548;28;20033;-79
2023/01/03 10:33:10;;;;;;;111.78;36.75;;;;;;;;;;5047388;28;20054;-79
2023/01/03 10:35:37;;;;;;;101.03;34.65;;;;;;;;;;5058624;28;20094;-79
2023/01/03 10:38:03;;;;;;;89.82;32.88;;;;;;;;;;5073643;28;20044;-79
2023/01/03 10:40:38;;;;;;;95.20;33.42;;;;;;;;;;5039629;28;20041;-78
2023/01/03 10:43:13;;;;;;;90.88;33.30;;;;;;;;;;5036895;28;20048;-79
2023/01/03 10:45:50;;;;;;;91.20;30.38;;;;;;;;;;5057172;28;20060;-79
2023/01/03 10:48:16;;;;;;;78.35;30.25;;;;;;;;;;5073165;28;20048;-79
2023/01/03 10:50:42;;;;;;;85.22;32.17;;;;;;;;;;5059391;28;20051;-79
2023/01/03 10:53:11;;;;;;;84.10;31.88;;;;;;;;;;5063800;28;20052;-78
2023/01/03 10:55:44;;;;;;;78.55;29.35;;;;;;;;;;5036565;28;20110;-78
2023/01/03 10:58:21;;;;;;;80.35;31.00;;;;;;;;;;5063831;28;20048;-78
2023/01/03 11:00:47;;;;;;;85.38;29.42;;;;;;;;;;5069759;28;20083;-78
2023/01/03 11:03:24;;;;;;;72.70;28.38;;;;;;;;;;5054840;28;20486;-79
2023/01/03 11:05:56;;;;;;;77.75;30.55;;;;;;;;;;5065067;28;20067;-79
2023/01/03 11:08:23;;;;;;;75.90;30.02;;;;;;;;;;5053850;28;20445;-78
2023/01/03 11:10:49;;;;;;;67.13;27.95;;;;;;;;;;5052921;28;20076;-79
2023/01/03 11:13:35;;;;;;;72.28;29.48;;;;;;;;;;5053274;28;20037;-79
2023/01/03 11:16:03;;;;;;;69.28;28.58;;;;;;;;;;5064744;28;20040;-79
2023/01/03 11:18:30;;;;;;;66.70;28.13;;;;;;;;;;5055736;28;20062;-79
2023/01/03 11:21:06;;;;;;;64.88;27.95;;;;;;;;;;5072953;28;20115;-79
2023/01/03 11:23:32;;;;;;;61.50;27.42;;;;;;;;;;5056381;28;20438;-78
2023/01/03 11:26:10;;;;;;;69.75;27.27;;;;;;;;;;5062700;28;20127;-79
2023/01/03 11:28:42;;;;;;;62.20;26.13;;;;;;;;;;5039183;28;20040;-78
2023/01/03 11:31:14;;;;;;;63.95;26.13;;;;;;;;;;5055437;28;20036;-79
2023/01/03 11:33:40;;;;;;;55.35;24.45;;;;;;;;;;5057868;28;20102;-78
2023/01/03 11:36:06;;;;;;;60.13;25.27;;;;;;;;;;5046959;28;20041;-78
2023/01/03 11:38:45;;;;;;;53.47;24.35;;;;;;;;;;5053102;28;20116;-79
2023/01/03 11:41:18;;;;;;;55.13;25.10;;;;;;;;;;5063350;28;20401;-79
2023/01/03 11:43:44;;;;;;;52.17;23.63;;;;;;;;;;5052431;28;20041;-79
2023/01/03 11:46:19;;;;;;;52.15;22.10;;;;;;;;;;5060240;28;20051;-79
2023/01/03 11:48:58;;;;;;;51.83;23.08;;;;;;;;;;5056737;28;20044;-79
2023/01/03 11:51:47;;;;;;;50.53;21.73;;;;;;;;;;5052210;28;20049;-79
2023/01/03 11:54:13;;;;;;;45.08;20.23;;;;;;;;;;5043899;28;20053;-78
2023/01/03 11:56:39;;;;;;;50.28;20.98;;;;;;;;;;5052000;28;20386;-78
2023/01/03 11:59:15;;;;;;;52.85;21.13;;;;;;;;;;5052230;28;20577;-79
2023/01/03 12:01:59;;;;;;;51.70;20.50;;;;;;;;;;5065641;28;20033;-79
2023/01/03 12:04:43;;;;;;;48.45;20.33;;;;;;;;;;5052122;28;20397;-79
2023/01/03 12:07:18;;;;;;;50.15;20.33;;;;;;;;;;5062828;28;20055;-79
2023/01/03 12:09:55;;;;;;;55.03;20.75;;;;;;;;;;5052376;28;20102;-79
2023/01/03 12:12:31;;;;;;;54.53;21.08;;;;;;;;;;5051526;28;20078;-79
2023/01/03 12:15:00;;;;;;;54.35;21.00;;;;;;;;;;5051404;28;20068;-79
2023/01/03 12:17:35;;;;;;;54.63;21.50;;;;;;;;;;5061152;28;20036;-79
2023/01/03 12:20:06;;;;;;;49.75;21.40;;;;;;;;;;5054376;28;20053;-79
2023/01/03 12:22:35;;;;;;;57.17;22.17;;;;;;;;;;5061056;28;20044;-79
2023/01/03 12:25:04;;;;;;;48.80;20.27;;;;;;;;;;5043072;28;20431;-79
2023/01/03 12:27:41;;;;;;;58.95;21.75;;;;;;;;;;5068889;28;20040;-79
2023/01/03 12:30:15;;;;;;;47.63;20.13;;;;;;;;;;5071105;28;20044;-79
2023/01/03 12:33:04;;;;;;;48.38;20.50;;;;;;;;;;5062468;28;20037;-79
2023/01/03 12:35:37;;;;;;;58.35;20.98;;;;;;;;;;5054693;28;20035;-79
2023/01/03 12:38:05;;;;;;;51.90;19.27;;;;;;;;;;5061035;28;20551;-79
2023/01/03 12:40:43;;;;;;;59.83;20.08;;;;;;;;;;5034688;28;20390;-79
2023/01/03 12:43:29;;;;;;;55.08;19.88;;;;;;;;;;5035139;28;20460;-79
2023/01/03 12:46:10;;;;;;;53.08;20.23;;;;;;;;;;5058974;28;20494;-79
2023/01/03 12:48:41;;;;;;;47.42;17.70;;;;;;;;;;5055668;28;20476;-79
2023/01/03 12:51:08;;;;;;;46.72;19.98;;;;;;;;;;5075339;28;20048;-79
2023/01/03 12:53:37;;;;;;;47.50;19.77;;;;;;;;;;5055015;28;20083;-79
2023/01/03 12:56:03;;;;;;;46.65;19.23;;;;;;;;;;5059897;28;20043;-79
2023/01/03 12:58:48;;;;;;;46.38;19.60;;;;;;;;;;5064871;28;20083;-79
2023/01/03 13:01:16;;;;;;;41.17;17.42;;;;;;;;;;5060669;28;20041;-79
2023/01/03 13:03:45;;;;;;;42.05;18.02;;;;;;;;;;5066356;28;20045;-79
2023/01/03 13:06:17;;;;;;;45.38;17.10;;;;;;;;;;5054796;28;20080;-79
2023/01/03 13:08:46;;;;;;;39.30;16.73;;;;;;;;;;5054836;28;20041;-79
2023/01/03 13:11:19;;;;;;;37.92;15.93;;;;;;;;;;5068777;28;20079;-79
2023/01/03 13:14:04;;;;;;;38.58;16.30;;;;;;;;;;5062126;28;20044;-79
2023/01/03 13:16:34;;;;;;;39.90;16.10;;;;;;;;;;5060775;28;20037;-79
2023/01/03 13:19:18;;;;;;;39.45;16.65;;;;;;;;;;5066347;28;20091;-79
2023/01/03 13:21:51;;;;;;;37.67;16.05;;;;;;;;;;5071778;28;20482;-79
2023/01/03 13:24:40;;;;;;;35.38;15.63;;;;;;;;;;5064758;28;20128;-79
2023/01/03 13:27:19;;;;;;;37.70;16.80;;;;;;;;;;5047013;28;20518;-79
2023/01/03 13:29:48;;;;;;;33.17;15.98;;;;;;;;;;5054388;28;20082;-78
2023/01/03 13:32:23;;;;;;;39.47;16.45;;;;;;;;;;5043052;28;20033;-78
2023/01/03 13:34:55;;;;;;;40.20;15.23;;;;;;;;;;5062347;28;20408;-78
2023/01/03 13:37:27;;;;;;;38.22;16.65;;;;;;;;;;5054461;28;20033;-79
2023/01/03 13:40:00;;;;;;;40.40;18.55;;;;;;;;;;5066700;28;20036;-78
2023/01/03 13:42:29;;;;;;;37.33;16.90;;;;;;;;;;5074550;28;20041;-77
2023/01/03 13:45:18;;;;;;;38.25;17.15;;;;;;;;;;5071651;28;20053;-77
2023/01/03 13:47:49;;;;;;;37.00;16.90;;;;;;;;;;5025363;28;20115;-79
2023/01/03 13:50:18;;;;;;;38.50;17.45;;;;;;;;;;5073699;28;20132;-78
2023/01/03 13:53:02;;;;;;;36.63;16.70;;;;;;;;;;5062342;28;20041;-77
2023/01/03 13:55:46;;;;;;;34.08;17.08;;;;;;;;;;5056954;28;20505;-78
2023/01/03 13:58:27;;;;;;;35.10;16.40;;;;;;;;;;5073991;28;20036;-79
2023/01/03 14:00:55;;;;;;;39.58;17.85;;;;;;;;;;5070115;28;20396;-78
2023/01/03 14:03:21;;;;;;;37.90;16.85;;;;;;;;;;5073834;28;20043;-78
2023/01/03 14:05:47;;;;;;;36.72;16.52;;;;;;;;;;5062024;28;20116;-79
2023/01/03 14:08:19;;;;;;;36.30;17.35;;;;;;;;;;5071455;28;20092;-78
2023/01/03 14:10:58;;;;;;;36.88;17.15;;;;;;;;;;5063065;28;20048;-78
2023/01/03 14:13:35;;;;;;;41.08;16.45;;;;;;;;;;5067946;28;20037;-78
2023/01/03 14:16:37;;;;;;;35.63;16.10;;;;;;;;;;5065956;28;20055;-78
2023/01/03 14:19:12;;;;;;;33.08;16.55;;;;;;;;;;4980122;28;20129;-78
2023/01/03 14:21:44;;;;;;;38.33;17.60;;;;;;;;;;5095261;28;20067;-78
2023/01/03 14:24:15;;;;;;;34.03;16.77;;;;;;;;;;5064958;28;20040;-78
2023/01/03 14:26:41;;;;;;;40.83;16.95;;;;;;;;;;5069344;28;20037;-78
2023/01/03 14:29:09;;;;;;;36.30;17.60;;;;;;;;;;5065334;28;20068;-78
2023/01/03 14:31:35;;;;;;;35.90;16.85;;;;;;;;;;5053286;28;20047;-78
2023/01/03 14:34:04;;;;;;;36.80;17.23;;;;;;;;;;5053161;28;20425;-78
2023/01/03 14:36:30;;;;;;;34.40;16.13;;;;;;;;;;5066098;28;20489;-78
2023/01/03 14:38:57;;;;;;;33.50;17.60;;;;;;;;;;5054467;28;20112;-78
2023/01/03 14:41:37;;;;;;;35.78;16.73;;;;;;;;;;5063982;28;20036;-79
2023/01/03 14:44:05;;;;;;;34.28;16.70;;;;;;;;;;5054626;28;20075;-79
2023/01/03 14:46:32;;;;;;;33.42;16.00;;;;;;;;;;5053145;28;20124;-78
2023/01/03 14:49:00;;;;;;;35.65;17.02;;;;;;;;;;5069964;28;20425;-78
2023/01/03 14:51:26;;;;;;;33.15;15.88;;;;;;;;;;5047124;28;20094;-77
2023/01/03 14:53:52;;;;;;;34.13;15.73;;;;;;;;;;5068183;28;20052;-78
2023/01/03 14:56:22;;;;;;;33.38;16.25;;;;;;;;;;5036648;28;20056;-78
2023/01/03 14:58:49;;;;;;;31.63;16.85;;;;;;;;;;5053020;28;20045;-78
2023/01/03 15:01:15;;;;;;;31.60;15.68;;;;;;;;;;5069323;28;20119;-77
2023/01/03 15:03:42;;;;;;;30.42;15.35;;;;;;;;;;5064282;28;20049;-78
2023/01/03 15:06:22;;;;;;;30.20;15.73;;;;;;;;;;5051955;28;20440;-78
2023/01/03 15:08:50;;;;;;;32.85;15.77;;;;;;;;;;5061088;28;20445;-77
2023/01/03 15:11:21;;;;;;;31.90;16.50;;;;;;;;;;5058401;28;20048;-78
2023/01/03 15:13:47;;;;;;;31.50;15.32;;;;;;;;;;5065468;28;20231;-78
2023/01/03 15:16:16;;;;;;;31.95;16.20;;;;;;;;;;5065656;28;20085;-77
2023/01/03 15:18:43;;;;;;;33.22;16.25;;;;;;;;;;5052612;28;20397;-77
2023/01/03 15:21:14;;;;;;;27.27;14.73;;;;;;;;;;5098317;28;20041;-77
2023/01/03 15:23:42;;;;;;;31.92;14.60;;;;;;;;;;5073365;28;20055;-78